Time;durP1;ratioP1;P1;durP2;ratioP2;P2;SDS_P1;SDS_P2;PMS_P1;PMS_P2;Temp;Humidity;BMP_temperature;BMP_pressure;BME280_temperature;BME280_humidity;BME280_pressure;Samples;Min_cycle;Max_cycle;Signal;HPM_P1;HPM_P2
2023/09/28 00:00:39;;;;;;;7.47;5.78;;;;;;;17.81;80.58;101410.41;7393594;19;19946;-65
2023/09/28 00:03:29;;;;;;;6.30;5.07;;;;;;;17.78;81.13;101410.78;7394369;19;19922;-65
2023/09/28 00:05:58;;;;;;;6.50;5.32;;;;;;;17.76;80.87;101414.78;7393921;19;20294;-65
2023/09/28 00:08:24;;;;;;;7.28;5.07;;;;;;;17.74;80.99;101409.53;7392399;19;19922;-65
2023/09/28 00:10:55;;;;;;;6.88;5.15;;;;;;;17.75;80.99;101403.03;7387599;19;20079;-65
2023/09/28 00:13:21;;;;;;;6.45;4.80;;;;;;;17.77;80.91;101411.03;7395123;19;19919;-65
2023/09/28 00:15:50;;;;;;;7.38;5.03;;;;;;;17.78;80.39;101394.44;7388991;19;20048;-65
2023/09/28 00:18:17;;;;;;;5.57;5.07;;;;;;;17.78;80.70;101382.69;7396344;19;19926;-65
2023/09/28 00:20:46;;;;;;;6.85;5.20;;;;;;;17.77;80.55;101381.88;7396093;19;20309;-65
2023/09/28 00:23:12;;;;;;;6.32;5.22;;;;;;;17.77;80.66;101373.72;7393930;19;20268;-65
2023/09/28 00:25:41;;;;;;;6.28;4.78;;;;;;;17.79;80.62;101385.22;7390852;19;20641;-65
2023/09/28 00:28:09;;;;;;;7.20;5.25;;;;;;;17.80;81.06;101380.63;7397320;19;19954;-65
2023/09/28 00:30:38;;;;;;;7.10;4.78;;;;;;;17.78;81.05;101369.91;7393446;19;19948;-65
2023/09/28 00:33:04;;;;;;;7.28;5.35;;;;;;;17.77;80.70;101370.97;7393191;19;19930;-65
2023/09/28 00:35:40;;;;;;;6.60;5.85;;;;;;;17.76;80.68;101363.84;7393087;19;20330;-65
2023/09/28 00:38:07;;;;;;;7.53;4.97;;;;;;;17.74;81.20;101365.09;7392183;19;19922;-65
2023/09/28 00:40:36;;;;;;;7.45;5.55;;;;;;;17.75;80.90;101358.59;7379296;19;19986;-65
2023/09/28 00:43:04;;;;;;;9.40;5.43;;;;;;;17.74;80.96;101351.47;7391533;19;19918;-65
2023/09/28 00:45:36;;;;;;;8.00;5.88;;;;;;;17.72;81.37;101359.88;7395386;19;19923;-65
2023/09/28 00:48:04;;;;;;;6.68;5.30;;;;;;;17.72;80.81;101367.22;7394541;19;19947;-65
2023/09/28 00:50:34;;;;;;;6.72;4.85;;;;;;;17.72;80.85;101372.66;7396644;19;19953;-65
2023/09/28 00:53:04;;;;;;;11.88;5.88;;;;;;;17.71;81.37;101360.06;7393159;19;19926;-65
2023/09/28 00:55:33;;;;;;;10.40;5.45;;;;;;;17.71;81.48;101357.34;7393645;19;20408;-65
2023/09/28 00:58:01;;;;;;;7.28;5.32;;;;;;;17.71;81.16;101368.25;7394633;19;20280;-65
2023/09/28 01:00:40;;;;;;;9.23;5.55;;;;;;;17.69;81.06;101363.00;7392339;19;19941;-65
2023/09/28 01:03:07;;;;;;;9.63;6.60;;;;;;;17.67;80.93;101368.69;7396734;19;19997;-65
2023/09/28 01:05:39;;;;;;;8.70;6.65;;;;;;;17.70;81.12;101372.84;7386598;19;19993;-65
2023/09/28 01:08:06;;;;;;;7.18;5.50;;;;;;;17.71;80.86;101370.97;7393053;19;19926;-64
2023/09/28 01:10:36;;;;;;;7.40;5.30;;;;;;;17.70;80.83;101359.25;7390006;19;20027;-65
2023/09/28 01:13:06;;;;;;;6.43;5.15;;;;;;;17.69;80.72;101360.28;7393878;19;19961;-65
2023/09/28 01:15:36;;;;;;;9.38;5.07;;;;;;;17.70;81.09;101353.78;7393280;19;19919;-64
2023/09/28 01:18:06;;;;;;;7.47;5.25;;;;;;;17.71;81.06;101360.06;7395412;19;20041;-65
2023/09/28 01:20:37;;;;;;;6.47;4.97;;;;;;;17.71;80.48;101357.34;7392652;19;19918;-65
2023/09/28 01:23:07;;;;;;;7.13;4.97;;;;;;;17.71;80.95;101358.19;7396196;19;19943;-65
2023/09/28 01:25:36;;;;;;;8.77;5.80;;;;;;;17.69;80.87;101358.41;7390890;19;20368;-65
2023/09/28 01:28:03;;;;;;;8.85;5.60;;;;;;;17.68;80.54;101356.75;7390972;19;19947;-65
2023/09/28 01:30:32;;;;;;;7.13;5.45;;;;;;;17.67;80.65;101357.78;7392876;19;19941;-65
2023/09/28 01:32:58;;;;;;;7.50;6.53;;;;;;;17.67;80.80;101351.50;7392673;19;19924;-65
2023/09/28 01:35:28;;;;;;;10.52;7.03;;;;;;;17.65;80.87;101348.13;7394005;19;19923;-66
2023/09/28 01:38:00;;;;;;;13.65;6.20;;;;;;;17.66;80.57;101350.66;7395048;19;19938;-65
2023/09/28 01:40:31;;;;;;;7.53;5.55;;;;;;;17.67;80.47;101354.22;7393059;19;20388;-64
2023/09/28 01:42:57;;;;;;;7.78;5.07;;;;;;;17.71;80.08;101347.28;7398136;19;20422;-65
2023/09/28 01:45:27;;;;;;;7.38;5.13;;;;;;;17.73;80.45;101347.94;7397389;19;20438;-65
2023/09/28 01:47:54;;;;;;;6.70;4.72;;;;;;;17.74;80.38;101346.88;7401220;19;20268;-65
2023/09/28 01:50:23;;;;;;;6.80;5.22;;;;;;;17.77;80.00;101348.34;7396574;19;19919;-65
2023/09/28 01:52:49;;;;;;;8.40;5.28;;;;;;;17.79;80.03;101343.50;7395798;19;19923;-65
2023/09/28 01:55:18;;;;;;;7.18;5.35;;;;;;;17.79;79.58;101344.34;7395253;19;19922;-65
2023/09/28 01:57:52;;;;;;;7.78;5.40;;;;;;;17.80;79.41;101364.25;7400485;19;19938;-65
2023/09/28 02:00:20;;;;;;;7.55;5.57;;;;;;;17.81;79.52;101363.22;7398074;19;19958;-65
2023/09/28 02:02:49;;;;;;;7.43;6.07;;;;;;;17.80;79.56;101359.66;7395557;19;19922;-65
2023/09/28 02:05:17;;;;;;;8.15;5.43;;;;;;;17.79;79.39;101348.94;7396703;19;19923;-65
2023/09/28 02:07:47;;;;;;;7.65;5.63;;;;;;;17.76;79.83;101361.13;7397856;19;19927;-65
2023/09/28 02:10:14;;;;;;;7.60;5.38;;;;;;;17.75;79.68;101350.44;7394432;19;19922;-65
2023/09/28 02:12:44;;;;;;;8.35;5.63;;;;;;;17.74;79.31;101365.94;7396887;19;20349;-65
2023/09/28 02:15:14;;;;;;;8.07;6.28;;;;;;;17.73;79.27;101361.56;7398111;19;19926;-65
2023/09/28 02:17:43;;;;;;;8.63;5.65;;;;;;;17.72;79.49;101348.13;7396981;19;20403;-65
2023/09/28 02:20:14;;;;;;;6.63;5.30;;;;;;;17.70;79.73;101351.06;7397605;19;20019;-66
2023/09/28 02:22:44;;;;;;;6.28;5.00;;;;;;;17.68;79.70;101350.44;7397466;19;20148;-66
2023/09/28 02:25:14;;;;;;;9.00;5.80;;;;;;;17.66;79.41;101352.53;7395597;19;20268;-66
2023/09/28 02:27:43;;;;;;;7.40;5.20;;;;;;;17.63;79.60;101356.53;7397860;19;20304;-65
2023/09/28 02:30:17;;;;;;;6.32;4.80;;;;;;;17.62;79.90;101356.72;7397647;19;19922;-65
2023/09/28 02:32:46;;;;;;;7.40;5.45;;;;;;;17.58;79.82;101352.75;7394305;19;20269;-65
2023/09/28 02:35:16;;;;;;;9.90;5.80;;;;;;;17.56;79.67;101360.28;7396697;19;19922;-65
2023/09/28 02:37:46;;;;;;;9.32;5.63;;;;;;;17.54;80.14;101363.22;7400955;19;19919;-65
2023/09/28 02:40:13;;;;;;;6.72;5.15;;;;;;;17.52;79.71;101369.91;7390924;19;19914;-65
2023/09/28 02:42:42;;;;;;;6.20;5.05;;;;;;;17.49;79.86;101371.19;7395046;19;20275;-65
2023/09/28 02:45:11;;;;;;;7.80;5.18;;;;;;;17.46;80.12;101371.59;7392905;19;19922;-65
2023/09/28 02:47:44;;;;;;;6.45;5.50;;;;;;;17.43;79.74;101373.91;7396449;19;19926;-65
2023/09/28 02:50:11;;;;;;;6.85;4.93;;;;;;;17.42;79.96;101367.63;7396707;19;19922;-65
2023/09/28 02:52:45;;;;;;;9.38;5.20;;;;;;;17.40;80.11;101374.31;7398797;19;19919;-65
2023/09/28 02:55:12;;;;;;;8.43;5.50;;;;;;;17.37;80.55;101364.69;7394162;19;19926;-64
2023/09/28 02:57:42;;;;;;;7.13;5.70;;;;;;;17.33;80.19;101366.16;7396428;19;19919;-64
2023/09/28 03:00:18;;;;;;;7.40;5.18;;;;;;;17.33;80.10;101381.66;7397714;19;19919;-65
2023/09/28 03:02:47;;;;;;;7.03;5.93;;;;;;;17.27;80.47;101366.97;7396511;19;19977;-65
2023/09/28 03:05:16;;;;;;;5.90;4.90;;;;;;;17.23;80.77;101372.00;7393524;19;19974;-65
2023/09/28 03:07:42;;;;;;;6.10;4.85;;;;;;;17.20;80.55;101369.72;7392040;19;19922;-65
2023/09/28 03:10:12;;;;;;;9.45;5.65;;;;;;;17.17;80.72;101370.09;7391947;19;19922;-64
2023/09/28 03:12:39;;;;;;;7.82;5.13;;;;;;;17.15;80.63;101374.94;7393320;19;19918;-65
2023/09/28 03:15:10;;;;;;;8.60;6.18;;;;;;;17.13;80.75;101379.72;7393828;19;20010;-65
2023/09/28 03:17:36;;;;;;;6.93;5.10;;;;;;;17.10;80.51;101377.44;7397974;19;20284;-65
2023/09/28 03:20:14;;;;;;;8.82;5.85;;;;;;;17.06;80.44;101376.19;7396162;19;19946;-66
2023/09/28 03:22:41;;;;;;;9.93;4.80;;;;;;;17.05;80.99;101387.25;7395991;19;19934;-65
2023/09/28 03:25:16;;;;;;;7.95;5.60;;;;;;;17.05;80.93;101400.88;7391976;19;19947;-66
2023/09/28 03:27:43;;;;;;;8.00;5.35;;;;;;;17.02;80.86;101404.84;7396232;19;20249;-65
2023/09/28 03:30:12;;;;;;;7.15;5.10;;;;;;;16.99;80.86;101409.88;7396098;19;19933;-65
2023/09/28 03:32:39;;;;;;;7.07;5.28;;;;;;;16.95;81.31;101409.47;7399470;19;19917;-65
2023/09/28 03:35:19;;;;;;;10.00;5.50;;;;;;;16.93;81.04;101411.53;7391806;19;20280;-65
2023/09/28 03:37:53;;;;;;;9.65;5.68;;;;;;;16.90;81.09;101409.22;7391763;19;19922;-65
2023/09/28 03:40:23;;;;;;;8.13;5.18;;;;;;;16.89;81.03;101421.16;7391077;19;19926;-65
2023/09/28 03:42:53;;;;;;;5.90;4.85;;;;;;;16.85;81.50;101417.16;7398188;19;19918;-65
2023/09/28 03:45:24;;;;;;;8.35;5.32;;;;;;;16.84;81.44;101420.94;7396498;19;19926;-65
2023/09/28 03:47:54;;;;;;;5.78;4.68;;;;;;;16.83;81.54;101430.13;7389770;19;19922;-65
2023/09/28 03:50:26;;;;;;;9.38;5.03;;;;;;;16.82;81.75;101424.91;7394218;19;19919;-65
2023/09/28 03:52:55;;;;;;;7.93;4.45;;;;;;;16.81;81.58;101434.09;7394369;19;19923;-65
2023/09/28 03:55:27;;;;;;;5.82;4.80;;;;;;;16.78;81.55;101430.72;7395288;19;19923;-65
2023/09/28 03:57:57;;;;;;;10.20;5.05;;;;;;;16.78;81.75;101428.00;7391536;19;20367;-65
2023/09/28 04:00:25;;;;;;;9.25;4.80;;;;;;;16.75;81.61;101422.16;7395811;19;19922;-65
2023/09/28 04:02:55;;;;;;;7.10;4.70;;;;;;;16.73;81.90;101418.81;7393289;19;19922;-65
2023/09/28 04:05:27;;;;;;;7.35;5.00;;;;;;;16.71;81.80;101419.00;7394141;19;19927;-65
2023/09/28 04:07:55;;;;;;;5.72;4.45;;;;;;;16.66;82.09;101418.75;7390556;19;19914;-65
2023/09/28 04:10:24;;;;;;;7.25;4.90;;;;;;;16.65;81.79;101421.72;7392725;19;19918;-65
2023/09/28 04:12:53;;;;;;;6.70;4.93;;;;;;;16.63;82.00;101421.91;7390121;19;19950;-66
2023/09/28 04:15:22;;;;;;;8.13;4.90;;;;;;;16.62;82.11;101422.94;7394686;19;20022;-67
2023/09/28 04:17:51;;;;;;;7.20;4.47;;;;;;;16.63;82.39;101431.94;7394832;19;19927;-65
2023/09/28 04:20:20;;;;;;;8.88;5.38;;;;;;;16.62;82.37;101422.94;7396603;19;19930;-65
2023/09/28 04:22:51;;;;;;;9.23;5.13;;;;;;;16.60;82.67;101421.47;7391847;19;19926;-64
2023/09/28 04:25:29;;;;;;;7.93;4.90;;;;;;;16.57;82.91;101424.53;7396005;19;19958;-65
2023/09/28 04:27:58;;;;;;;9.38;5.35;;;;;;;16.56;83.27;101420.16;7391033;19;20407;-65
2023/09/28 04:30:27;;;;;;;6.68;5.07;;;;;;;16.52;83.12;101413.47;7395115;19;19938;-65
2023/09/28 04:32:56;;;;;;;7.63;5.40;;;;;;;16.51;83.19;101422.66;7392716;19;19933;-64
2023/09/28 04:35:25;;;;;;;6.15;4.50;;;;;;;16.48;83.69;101423.88;7389550;19;19944;-66
2023/09/28 04:37:56;;;;;;;7.90;4.82;;;;;;;16.47;83.60;101426.81;7394348;19;19951;-64
2023/09/28 04:40:27;;;;;;;9.93;5.32;;;;;;;16.45;83.86;101432.44;7388931;19;19950;-64
2023/09/28 04:42:56;;;;;;;8.32;4.57;;;;;;;16.45;83.52;101437.06;7394611;19;19926;-64
2023/09/28 04:45:25;;;;;;;7.93;5.50;;;;;;;16.44;83.92;101443.56;7397154;19;19927;-65
2023/09/28 04:47:54;;;;;;;7.55;5.15;;;;;;;16.41;84.14;101442.06;7394053;19;20304;-65
2023/09/28 04:50:23;;;;;;;7.68;5.38;;;;;;;16.40;84.45;101448.53;7394482;19;19914;-65
2023/09/28 04:52:52;;;;;;;8.52;5.13;;;;;;;16.38;84.21;101456.06;7397012;19;19974;-65
2023/09/28 04:55:23;;;;;;;8.68;5.90;;;;;;;16.36;84.54;101444.53;7396826;19;19922;-65
2023/09/28 04:57:53;;;;;;;9.27;5.70;;;;;;;16.35;84.74;101454.56;7396339;19;20284;-64
2023/09/28 05:00:22;;;;;;;9.27;5.97;;;;;;;16.33;84.72;101453.94;7394534;19;19934;-65
2023/09/28 05:02:51;;;;;;;8.70;4.90;;;;;;;16.33;84.85;101448.50;7394934;19;19933;-65
2023/09/28 05:05:39;;;;;;;6.55;5.40;;;;;;;16.31;85.06;101458.72;7394378;19;20436;-65
2023/09/28 05:08:28;;;;;;;8.82;5.60;;;;;;;16.31;85.23;101461.44;7393992;19;19930;-65
2023/09/28 05:11:01;;;;;;;7.22;4.88;;;;;;;16.32;85.63;101462.28;7395829;19;20333;-65
2023/09/28 05:13:31;;;;;;;6.35;4.57;;;;;;;16.32;85.31;101468.56;7401638;19;19923;-65
2023/09/28 05:16:00;;;;;;;9.65;5.00;;;;;;;16.32;85.37;101468.56;7396840;19;19938;-65
2023/09/28 05:18:29;;;;;;;8.60;4.50;;;;;;;16.32;85.45;101478.59;7401601;19;19926;-65
2023/09/28 05:20:58;;;;;;;8.00;5.10;;;;;;;16.30;85.18;101473.38;7400155;19;19926;-65
2023/09/28 05:23:26;;;;;;;9.73;5.13;;;;;;;16.30;85.49;101477.97;7401477;19;20214;-65
2023/09/28 05:25:55;;;;;;;8.88;4.65;;;;;;;16.28;85.57;101477.31;7400361;19;19927;-65
2023/09/28 05:28:26;;;;;;;7.05;4.30;;;;;;;16.26;85.84;101488.44;7401908;19;20070;-65
2023/09/28 05:30:55;;;;;;;7.65;5.32;;;;;;;16.25;85.79;101492.16;7396656;19;19922;-65
2023/09/28 05:33:23;;;;;;;5.78;4.10;;;;;;;16.23;85.67;101491.53;7397830;19;19926;-65
2023/09/28 05:35:52;;;;;;;6.93;4.90;;;;;;;16.20;86.00;101481.06;7400133;19;19926;-65
2023/09/28 05:38:41;;;;;;;6.05;4.95;;;;;;;16.19;86.29;101489.41;7398436;19;19918;-65
2023/09/28 05:41:10;;;;;;;7.78;4.72;;;;;;;16.17;86.40;101486.91;7398226;19;19951;-65
2023/09/28 05:43:41;;;;;;;8.80;4.43;;;;;;;16.14;86.50;101490.00;7399024;19;19941;-65
2023/09/28 05:46:11;;;;;;;9.40;5.55;;;;;;;16.12;86.55;101497.53;7401410;19;19919;-66
2023/09/28 05:48:39;;;;;;;6.80;4.88;;;;;;;16.11;86.73;101509.41;7401384;19;19922;-66
2023/09/28 05:51:08;;;;;;;7.38;4.90;;;;;;;16.10;86.58;101506.88;7399135;19;19918;-65
2023/09/28 05:53:37;;;;;;;7.28;4.97;;;;;;;16.07;86.92;101508.13;7401596;19;20402;-65
2023/09/28 05:56:07;;;;;;;8.43;4.75;;;;;;;16.07;86.60;101513.56;7400814;19;19918;-66
2023/09/28 05:58:36;;;;;;;6.97;4.80;;;;;;;16.07;86.96;101523.59;7401511;19;19922;-65
2023/09/28 06:01:15;;;;;;;7.65;5.18;;;;;;;16.02;87.46;101526.91;7400806;19;19919;-64
2023/09/28 06:03:48;;;;;;;;;;;;;;;15.88;88.73;101531.38;7394986;19;19943;-64
2023/09/28 06:06:25;;;;;;;7.85;4.55;;;;;;;16.02;87.33;101535.06;7399470;19;19927;-64
2023/09/28 06:08:53;;;;;;;6.85;4.35;;;;;;;16.03;87.13;101544.91;7398413;19;20007;-64
2023/09/28 06:11:22;;;;;;;9.48;4.78;;;;;;;16.06;87.65;101547.22;7397783;19;19933;-64
2023/09/28 06:13:56;;;;;;;8.25;4.63;;;;;;;16.09;87.25;101556.88;7396610;19;19934;-63
2023/09/28 06:16:29;;;;;;;9.02;5.30;;;;;;;16.13;87.28;101561.72;7397044;19;19930;-64
2023/09/28 06:18:58;;;;;;;7.28;4.30;;;;;;;16.17;87.52;101565.72;7399523;19;20254;-64
2023/09/28 06:21:27;;;;;;;6.97;4.40;;;;;;;16.20;87.43;101568.03;7396733;19;19918;-63
2023/09/28 06:23:55;;;;;;;9.02;5.25;;;;;;;16.25;86.99;101575.63;7393387;19;19918;-64
2023/09/28 06:26:24;;;;;;;6.55;4.13;;;;;;;16.30;86.96;101590.31;7392737;19;20282;-64
2023/09/28 06:28:52;;;;;;;8.73;4.00;;;;;;;16.37;86.50;101575.91;7395080;19;19918;-64
2023/09/28 06:31:21;;;;;;;8.85;3.97;;;;;;;16.43;86.58;101584.13;7391752;19;19918;-64
2023/09/28 06:33:53;;;;;;;6.25;3.35;;;;;;;16.49;86.46;101593.34;7393196;19;19941;-64
2023/09/28 06:36:24;;;;;;;10.80;3.95;;;;;;;16.53;85.66;101578.31;7391114;19;19927;-64
2023/09/28 06:38:56;;;;;;;7.32;3.55;;;;;;;16.57;85.45;101585.03;7387558;19;19977;-64
2023/09/28 06:41:25;;;;;;;8.13;3.50;;;;;;;16.59;85.45;101592.00;7392213;19;19931;-64
2023/09/28 06:43:53;;;;;;;10.80;4.32;;;;;;;16.63;85.36;101595.16;7395640;19;20810;-63
2023/09/28 06:46:23;;;;;;;8.18;4.10;;;;;;;16.65;85.35;101593.09;7393733;19;19950;-64
2023/09/28 06:48:54;;;;;;;7.43;3.80;;;;;;;16.67;85.38;101591.00;7394604;19;19919;-64
2023/09/28 06:51:25;;;;;;;8.60;3.97;;;;;;;16.68;85.45;101598.97;7394116;19;19939;-63
2023/09/28 06:53:54;;;;;;;9.90;3.53;;;;;;;16.71;85.83;101603.19;7397926;19;19978;-64
2023/09/28 06:56:23;;;;;;;8.68;3.78;;;;;;;16.73;85.63;101603.81;7393559;19;19927;-63
2023/09/28 06:58:52;;;;;;;6.28;4.15;;;;;;;16.75;86.03;101610.75;7392253;19;20357;-64
2023/09/28 07:01:22;;;;;;;9.82;4.28;;;;;;;16.79;85.70;101611.19;7392174;19;20356;-64
2023/09/28 07:03:54;;;;;;;12.05;4.57;;;;;;;16.83;85.88;101617.91;7390426;19;20050;-64
2023/09/28 07:06:24;;;;;;;9.20;4.38;;;;;;;16.86;85.56;101617.53;7388996;19;20582;-64
2023/09/28 07:08:52;;;;;;;8.73;4.30;;;;;;;16.87;86.02;101610.19;7387452;19;19930;-63
2023/09/28 07:11:21;;;;;;;12.25;4.30;;;;;;;16.88;86.14;101612.69;7394705;19;19933;-64
2023/09/28 07:13:50;;;;;;;11.32;4.90;;;;;;;16.88;86.00;101620.88;7392060;19;19930;-64
2023/09/28 07:16:19;;;;;;;16.05;5.25;;;;;;;16.91;85.71;101625.09;7394316;19;19950;-64
2023/09/28 07:18:48;;;;;;;10.57;5.30;;;;;;;16.92;86.12;101629.47;7394449;19;19932;-63
2023/09/28 07:21:20;;;;;;;10.70;5.35;;;;;;;16.92;85.73;101635.75;7397083;19;19951;-64
2023/09/28 07:23:48;;;;;;;8.48;4.75;;;;;;;16.93;85.86;101637.44;7394713;19;19943;-64
2023/09/28 07:26:18;;;;;;;9.80;4.85;;;;;;;16.95;86.14;101643.53;7392815;19;19929;-64
2023/09/28 07:28:47;;;;;;;10.18;4.97;;;;;;;16.96;85.55;101647.06;7392906;19;19927;-64
2023/09/28 07:31:16;;;;;;;8.57;4.05;;;;;;;16.99;85.48;101644.81;7389980;19;19947;-64
2023/09/28 07:33:45;;;;;;;8.40;4.30;;;;;;;17.05;84.83;101649.44;7391373;19;19930;-64
2023/09/28 07:36:14;;;;;;;7.88;4.47;;;;;;;17.13;84.68;101649.28;7394486;19;20269;-64
2023/09/28 07:38:47;;;;;;;12.23;4.38;;;;;;;17.17;84.33;101636.13;7393178;19;20736;-64
2023/09/28 07:41:15;;;;;;;14.38;2.90;;;;;;;17.22;84.29;101639.91;7390669;19;19922;-64
2023/09/28 07:43:44;;;;;;;8.20;4.35;;;;;;;17.26;83.76;101658.59;7396386;19;19933;-64
2023/09/28 07:46:13;;;;;;;8.45;2.80;;;;;;;17.37;83.64;101672.47;7388037;19;20284;-64
2023/09/28 07:48:42;;;;;;;10.68;3.50;;;;;;;17.47;83.35;101677.56;7391942;19;19983;-64
2023/09/28 07:51:10;;;;;;;14.90;3.25;;;;;;;17.55;82.90;101677.38;7397794;19;19957;-64
2023/09/28 07:53:39;;;;;;;7.30;2.63;;;;;;;17.58;82.31;101677.84;7393579;19;19947;-64
2023/09/28 07:56:10;;;;;;;11.75;2.92;;;;;;;17.61;81.96;101671.13;7388096;19;19919;-63
2023/09/28 07:58:39;;;;;;;7.05;2.30;;;;;;;17.65;82.07;101677.84;7393539;19;19943;-64
2023/09/28 08:01:09;;;;;;;10.43;3.13;;;;;;;17.61;81.80;101680.13;7389331;19;19929;-64
2023/09/28 08:03:38;;;;;;;11.15;3.22;;;;;;;17.61;81.75;101676.56;7389718;19;20225;-64
2023/09/28 08:06:09;;;;;;;18.75;2.53;;;;;;;17.61;81.33;101680.13;7392926;19;19918;-64
2023/09/28 08:08:39;;;;;;;12.60;3.17;;;;;;;17.64;81.34;101681.63;7389668;19;19924;-65
2023/09/28 08:11:10;;;;;;;15.77;3.17;;;;;;;17.67;80.43;101679.34;7385645;19;20284;-64
2023/09/28 08:13:38;;;;;;;13.70;2.42;;;;;;;17.73;80.73;101685.03;7389112;19;19923;-64
2023/09/28 08:16:07;;;;;;;13.05;3.70;;;;;;;17.79;80.31;101684.19;7395233;19;20261;-64
2023/09/28 08:18:36;;;;;;;11.63;2.78;;;;;;;17.85;79.51;101689.69;7398097;19;19929;-65
2023/09/28 08:21:05;;;;;;;13.32;2.47;;;;;;;17.90;79.16;101678.16;7397156;19;20401;-64
2023/09/28 08:23:33;;;;;;;16.15;2.80;;;;;;;17.95;79.28;101690.09;7396899;19;20337;-64
2023/09/28 08:26:02;;;;;;;15.48;2.55;;;;;;;18.01;78.88;101692.03;7398624;19;19926;-64
2023/09/28 08:28:33;;;;;;;10.40;2.50;;;;;;;18.07;77.98;101701.28;7398946;19;20451;-65
2023/09/28 08:31:06;;;;;;;16.95;2.80;;;;;;;18.11;77.03;101687.03;7392689;19;19922;-64
2023/09/28 08:33:42;;;;;;;12.00;2.15;;;;;;;18.15;77.35;101695.63;7395908;19;20245;-64
2023/09/28 08:36:13;;;;;;;10.77;2.28;;;;;;;18.18;76.82;101706.13;7398379;19;20290;-64
2023/09/28 08:38:41;;;;;;;13.15;3.17;;;;;;;18.23;76.73;101714.53;7394795;19;19929;-64
2023/09/28 08:41:44;;;;;;;12.98;2.70;;;;;;;18.28;75.80;101701.13;7394382;19;19930;-64
2023/09/28 08:44:16;;;;;;;13.15;2.38;;;;;;;18.40;75.81;101695.88;7396551;19;19985;-64
2023/09/28 08:46:45;;;;;;;12.40;2.17;;;;;;;18.46;76.12;101697.78;7393549;19;20557;-64
2023/09/28 08:49:15;;;;;;;18.63;2.88;;;;;;;18.53;75.30;101706.84;7395416;19;20353;-64
2023/09/28 08:51:47;;;;;;;11.70;2.25;;;;;;;18.61;75.11;101712.09;7394642;19;19922;-65
2023/09/28 08:54:17;;;;;;;9.00;2.20;;;;;;;18.72;74.40;101714.19;7396940;19;20289;-64
2023/09/28 08:56:48;;;;;;;11.25;2.58;;;;;;;18.73;74.28;101725.94;7392914;19;19919;-65
2023/09/28 08:59:23;;;;;;;17.42;2.40;;;;;;;18.72;74.17;101735.19;7395835;19;19930;-64
2023/09/28 09:01:54;;;;;;;13.45;2.65;;;;;;;18.74;75.10;101733.06;7393193;19;20371;-64
2023/09/28 09:04:24;;;;;;;15.43;3.10;;;;;;;18.72;74.37;101735.19;7397739;19;19933;-65
2023/09/28 09:06:54;;;;;;;15.73;2.88;;;;;;;18.77;74.43;101738.16;7396026;19;19926;-64
2023/09/28 09:09:24;;;;;;;14.57;2.42;;;;;;;18.86;73.88;101743.16;7390147;19;19922;-65
2023/09/28 09:12:03;;;;;;;20.42;3.90;;;;;;;18.94;73.30;101737.47;7388158;19;19926;-64
2023/09/28 09:14:34;;;;;;;15.30;2.80;;;;;;;19.00;72.56;101747.56;7397550;19;19915;-63
2023/09/28 09:17:03;;;;;;;16.30;2.40;;;;;;;19.07;73.11;101749.47;7391623;19;19927;-64
2023/09/28 09:19:33;;;;;;;13.68;2.60;;;;;;;19.08;71.91;101749.25;7383550;19;19919;-66
2023/09/28 09:22:04;;;;;;;15.15;2.85;;;;;;;19.11;71.69;101748.84;7374197;19;19923;-65
2023/09/28 09:24:33;;;;;;;18.35;3.33;;;;;;;19.08;71.64;101737.47;7391646;19;19925;-65
2023/09/28 09:27:02;;;;;;;13.77;2.65;;;;;;;19.09;71.63;101726.34;7395004;19;20242;-65
2023/09/28 09:29:34;;;;;;;13.45;2.08;;;;;;;19.11;71.16;101728.88;7396352;19;19915;-65
2023/09/28 09:32:05;;;;;;;14.27;3.50;;;;;;;19.09;71.46;101741.88;7387852;19;19922;-65
2023/09/28 09:34:42;;;;;;;13.30;2.25;;;;;;;19.10;71.67;101749.03;7393541;19;19934;-64
2023/09/28 09:37:14;;;;;;;11.90;2.42;;;;;;;19.07;70.66;101739.34;7238990;19;20359;-65
2023/09/28 09:39:43;;;;;;;14.52;2.65;;;;;;;19.06;71.44;101748.63;7316371;19;19927;-65
2023/09/28 09:42:12;;;;;;;13.68;2.42;;;;;;;19.04;71.20;101748.84;7394000;19;19925;-65
2023/09/28 09:44:43;;;;;;;13.10;3.25;;;;;;;19.04;71.04;101745.25;7394735;19;19922;-65
2023/09/28 09:47:14;;;;;;;19.60;3.22;;;;;;;19.07;71.84;101761.22;7389864;19;19925;-65
2023/09/28 09:49:43;;;;;;;15.43;2.63;;;;;;;19.21;71.65;101762.03;7394711;19;19934;-65
2023/09/28 09:52:13;;;;;;;13.02;2.42;;;;;;;19.23;70.91;101776.34;7390333;19;19934;-65
2023/09/28 09:54:42;;;;;;;18.42;2.88;;;;;;;19.23;71.35;101779.06;7390719;19;19922;-65
2023/09/28 09:57:15;;;;;;;14.07;2.90;;;;;;;19.25;69.91;101771.50;7398822;19;19931;-65
2023/09/28 09:59:48;;;;;;;15.90;2.28;;;;;;;19.23;68.98;101777.19;7395548;19;20292;-65
2023/09/28 10:02:26;;;;;;;16.65;2.75;;;;;;;19.23;69.58;101776.34;7391839;19;19927;-65
2023/09/28 10:04:58;;;;;;;18.15;2.80;;;;;;;19.35;69.22;101782.84;7400792;19;20361;-65
2023/09/28 10:07:29;;;;;;;;;;;;;;;19.42;68.33;101776.31;7400442;19;20348;-64
2023/09/28 10:09:59;;;;;;;14.45;2.30;;;;;;;19.76;68.65;101768.91;7395228;19;20380;-65
2023/09/28 10:12:28;;;;;;;18.60;2.25;;;;;;;19.82;67.78;101782.53;7397191;19;19967;-65
2023/09/28 10:15:00;;;;;;;11.93;2.13;;;;;;;19.73;65.89;101772.06;7401422;19;19922;-65
2023/09/28 10:17:29;;;;;;;;;;;;;;;19.61;64.39;101782.81;7402645;19;19990;-65
2023/09/28 10:19:59;;;;;;;11.77;2.25;;;;;;;19.78;66.10;101775.00;7395712;19;19931;-66
2023/09/28 10:22:48;;;;;;;13.85;2.50;;;;;;;19.76;66.24;101772.47;7397096;19;19986;-66
2023/09/28 10:25:20;;;;;;;15.65;2.47;;;;;;;19.72;65.19;101765.75;7401739;19;19918;-66
2023/09/28 10:27:50;;;;;;;17.65;2.63;;;;;;;19.77;65.80;101765.94;7400107;19;19922;-65
2023/09/28 10:30:22;;;;;;;11.90;1.98;;;;;;;19.96;64.20;101777.03;7394011;19;20033;-66
2023/09/28 10:32:53;;;;;;;18.90;2.55;;;;;;;19.93;63.28;101776.38;7393995;19;19991;-66
2023/09/28 10:35:30;;;;;;;11.77;2.55;;;;;;;20.10;62.61;101775.91;7399526;19;19937;-66
2023/09/28 10:38:21;;;;;;;13.48;2.03;;;;;;;20.17;62.57;101774.81;7400088;19;19927;-65
2023/09/28 10:41:05;;;;;;;13.70;2.47;;;;;;;20.04;62.95;101780.34;7393378;19;19922;-65
2023/09/28 10:43:36;;;;;;;15.35;2.00;;;;;;;20.08;63.97;101791.69;7397601;19;19922;-65
2023/09/28 10:46:08;;;;;;;11.50;2.30;;;;;;;20.05;63.54;101775.72;7400241;19;19931;-65
2023/09/28 10:48:42;;;;;;;14.57;2.20;;;;;;;20.04;62.45;101788.56;7398277;19;19934;-65
2023/09/28 10:51:12;;;;;;;18.92;2.33;;;;;;;19.97;62.94;101782.28;7396999;19;19947;-65
2023/09/28 10:53:41;;;;;;;13.95;2.53;;;;;;;19.92;63.96;101782.94;7397557;19;19960;-67
2023/09/28 10:56:11;;;;;;;16.50;3.00;;;;;;;19.91;64.29;101785.88;7398466;19;19960;-64
2023/09/28 10:58:41;;;;;;;10.60;2.20;;;;;;;19.86;64.47;101797.47;7399063;19;19919;-66
2023/09/28 11:01:13;;;;;;;14.85;2.65;;;;;;;19.77;64.90;101793.28;7394261;19;19918;-67
2023/09/28 11:03:42;;;;;;;12.65;2.20;;;;;;;19.74;65.64;101793.72;7395184;19;19918;-66
2023/09/28 11:06:12;;;;;;;11.30;2.83;;;;;;;19.67;66.02;101798.38;7398155;19;19922;-65
2023/09/28 11:08:41;;;;;;;11.82;3.20;;;;;;;19.68;66.13;101797.31;7395067;19;19970;-65
2023/09/28 11:11:10;;;;;;;10.88;2.85;;;;;;;19.67;65.82;101795.66;7394354;19;20373;-66
2023/09/28 11:13:39;;;;;;;16.35;3.38;;;;;;;19.66;65.34;101798.59;7394603;19;19975;-65
2023/09/28 11:16:09;;;;;;;16.58;2.53;;;;;;;19.75;65.70;101791.84;7398736;19;20006;-66
2023/09/28 11:18:41;;;;;;;13.95;2.75;;;;;;;19.80;65.13;101789.31;7397011;19;19922;-66
2023/09/28 11:21:12;;;;;;;9.77;2.70;;;;;;;19.77;65.33;101793.28;7395934;19;19926;-67
2023/09/28 11:23:41;;;;;;;9.18;2.30;;;;;;;19.74;65.27;101799.19;7394789;19;19958;-64
2023/09/28 11:26:12;;;;;;;10.88;2.20;;;;;;;19.73;64.44;101796.66;7389204;19;19926;-66
2023/09/28 11:28:41;;;;;;;7.70;2.25;;;;;;;19.76;64.25;101805.28;7386122;19;19939;-66
2023/09/28 11:31:12;;;;;;;16.75;2.40;;;;;;;19.74;64.37;101796.47;7395952;19;19922;-66
2023/09/28 11:33:44;;;;;;;16.38;2.53;;;;;;;19.77;63.34;101808.84;7377882;19;19930;-66
2023/09/28 11:36:17;;;;;;;11.82;2.15;;;;;;;19.71;62.88;101805.09;7398129;19;20400;-67